Time,TemperatureF,DewpointF,PressureIn,WindDirection,WindDirectionDegrees,WindSpeedMPH,WindSpeedGustMPH,Humidity,HourlyPrecipIn,Conditions,Clouds,dailyrainin,SolarRadiationWatts/m^2,SoftwareType,DateUTC
2013-02-05 00:01:00,26.0,18.0,-100.00,SSE,148,11.0,14.0,72,-99.99,,,-99.99,0.000000,,2013-02-05 08:01:00,
2013-02-05 00:11:00,26.0,18.0,-100.00,SSE,148,10.0,13.0,73,-99.99,,,-99.99,0.000000,,2013-02-05 08:11:00,
2013-02-05 00:21:00,25.0,18.0,-100.00,SSE,151,11.0,13.0,73,-99.99,,,-99.99,0.000000,,2013-02-05 08:21:00,
2013-02-05 00:31:00,25.0,18.0,-100.00,SSE,151,11.0,13.0,73,-99.99,,,-99.99,0.000000,,2013-02-05 08:31:00,
2013-02-05 01:02:00,24.0,18.0,-100.00,SE,146,10.0,12.0,78,-99.99,,,-99.99,0.000000,,2013-02-05 09:02:00,
2013-02-05 01:11:00,24.0,18.0,-100.00,SSE,147,10.0,13.0,79,-99.99,,,-99.99,0.000000,,2013-02-05 09:11:00,
2013-02-05 01:21:00,24.0,18.0,-100.00,SSE,149,12.0,14.0,77,-99.99,,,-99.99,0.000000,,2013-02-05 09:21:00,
2013-02-05 01:31:00,24.0,18.0,-100.00,SSE,149,12.0,14.0,77,-99.99,,,-99.99,0.000000,,2013-02-05 09:31:00,
2013-02-05 01:42:00,25.0,17.0,-100.00,SSE,151,13.0,17.0,71,-99.99,,,-99.99,0.000000,,2013-02-05 09:42:00,
2013-02-05 01:51:00,24.0,16.0,-100.00,SSE,150,12.0,15.0,72,-99.99,,,-99.99,0.000000,,2013-02-05 09:51:00,
2013-02-05 02:01:00,24.0,16.0,-100.00,SSE,150,12.0,15.0,72,-99.99,,,-99.99,0.000000,,2013-02-05 10:01:00,
2013-02-05 02:11:00,22.0,17.0,-100.00,SSE,147,10.0,13.0,80,-99.99,,,-99.99,0.000000,,2013-02-05 10:11:00,
2013-02-05 02:21:00,22.0,16.0,-100.00,SSE,151,11.0,13.0,78,-99.99,,,-99.99,0.000000,,2013-02-05 10:21:00,
2013-02-05 02:31:00,22.0,16.0,-100.00,SSE,151,11.0,13.0,78,-99.99,,,-99.99,0.000000,,2013-02-05 10:31:00,
2013-02-05 02:42:00,23.0,16.0,-100.00,SE,143,13.0,16.0,75,-99.99,,,-99.99,0.000000,,2013-02-05 10:42:00,
2013-02-05 02:52:00,25.0,15.0,-100.00,SSE,149,14.0,19.0,67,-99.99,,,-99.99,0.000000,,2013-02-05 10:52:00,
2013-02-05 03:01:00,25.0,15.0,-100.00,SSE,149,14.0,19.0,67,-99.99,,,-99.99,0.000000,,2013-02-05 11:01:00,
2013-02-05 03:11:00,24.0,16.0,-100.00,SE,145,13.0,18.0,70,-99.99,,,-99.99,0.000000,,2013-02-05 11:11:00,
2013-02-05 03:22:00,24.0,15.0,-100.00,SSE,149,14.0,19.0,68,-99.99,,,-99.99,0.000000,,2013-02-05 11:22:00,
2013-02-05 03:32:00,24.0,16.0,-100.00,SSE,150,13.0,17.0,69,-99.99,,,-99.99,0.000000,,2013-02-05 11:32:00,
2013-02-05 03:41:00,24.0,16.0,-100.00,SE,142,13.0,17.0,72,-99.99,,,-99.99,0.000000,,2013-02-05 11:41:00,
2013-02-05 03:52:00,24.0,16.0,-100.00,SE,142,13.0,17.0,72,-99.99,,,-99.99,0.000000,,2013-02-05 11:52:00,
2013-02-05 04:01:00,24.0,16.0,-100.00,SE,142,12.0,16.0,72,-99.99,,,-99.99,0.000000,,2013-02-05 12:01:00,
2013-02-05 04:12:00,25.0,16.0,-100.00,SSE,148,11.0,16.0,68,-99.99,,,-99.99,0.000000,,2013-02-05 12:12:00,
2013-02-05 04:21:00,25.0,16.0,-100.00,SSE,148,9.0,13.0,68,-99.99,,,-99.99,0.000000,,2013-02-05 12:21:00,
2013-02-05 04:30:00,24.0,16.0,-100.00,SE,143,10.0,13.0,70,-99.99,,,-99.99,0.000000,,2013-02-05 12:30:00,
2013-02-05 04:32:00,25.0,16.0,-100.00,SSE,148,9.0,13.0,68,-99.99,,,-99.99,0.000000,,2013-02-05 12:32:00,
2013-02-05 04:42:00,23.0,17.0,-100.00,SSE,148,7.0,9.0,75,-99.99,,,-99.99,0.000000,,2013-02-05 12:42:00,
2013-02-05 04:52:00,24.0,17.0,-100.00,SSE,147,8.0,10.0,74,-99.99,,,-99.99,0.000000,,2013-02-05 12:52:00,
2013-02-05 05:01:00,24.0,17.0,-100.00,SSE,147,8.0,10.0,74,-99.99,,,-99.99,0.000000,,2013-02-05 13:01:00,
2013-02-05 05:11:00,24.0,16.0,-100.00,SE,140,10.0,15.0,73,-99.99,,,-99.99,0.000000,,2013-02-05 13:11:00,
2013-02-05 05:20:00,24.0,16.0,-100.00,SE,142,12.0,15.0,71,-99.99,,,-99.99,0.000000,,2013-02-05 13:20:00,
2013-02-05 05:21:00,24.0,16.0,-100.00,SE,143,10.0,13.0,70,-99.99,,,-99.99,0.000000,,2013-02-05 13:21:00,
2013-02-05 05:30:00,24.0,15.0,-100.00,SE,146,13.0,16.0,69,-99.99,,,-99.99,0.000000,,2013-02-05 13:30:00,
2013-02-05 05:42:00,24.0,16.0,-100.00,SE,144,11.0,13.0,70,-99.99,,,-99.99,0.000000,,2013-02-05 13:42:00,
2013-02-05 05:51:00,23.0,16.0,-100.00,SE,140,11.0,13.0,72,-99.99,,,-99.99,0.000000,,2013-02-05 13:51:00,
2013-02-05 06:01:00,23.0,16.0,-100.00,SE,140,11.0,13.0,72,-99.99,,,-99.99,0.000000,,2013-02-05 14:01:00,
2013-02-05 06:12:00,24.0,16.0,-100.00,SE,142,12.0,15.0,71,-99.99,,,-99.99,0.000000,,2013-02-05 14:12:00,
2013-02-05 06:42:00,23.0,16.0,-100.00,SE,137,9.0,12.0,73,-99.99,,,-99.99,0.000000,,2013-02-05 14:42:00,
2013-02-05 06:52:00,23.0,16.0,-100.00,SE,137,9.0,12.0,73,-99.99,,,-99.99,0.000000,,2013-02-05 14:52:00,
2013-02-05 07:01:00,23.0,15.0,-100.00,SE,143,10.0,12.0,73,-99.99,,,-99.99,0.000000,,2013-02-05 15:01:00,
2013-02-05 07:11:00,23.0,15.0,-100.00,SE,143,10.0,13.0,74,-99.99,,,-99.99,1.000000,,2013-02-05 15:11:00,
2013-02-05 07:21:00,23.0,15.0,-100.00,SE,143,10.0,13.0,74,-99.99,,,-99.99,1.000000,,2013-02-05 15:21:00,
2013-02-05 07:32:00,23.0,15.0,-100.00,SE,146,12.0,15.0,73,-99.99,,,-99.99,7.000000,,2013-02-05 15:32:00,
2013-02-05 07:41:00,24.0,16.0,-100.00,SSE,157,10.0,14.0,70,-99.99,,,-99.99,15.000000,,2013-02-05 15:41:00,
2013-02-05 07:52:00,24.0,16.0,-100.00,SSE,163,8.0,15.0,72,-99.99,,,-99.99,21.000000,,2013-02-05 15:52:00,
2013-02-05 08:01:00,23.0,16.0,-100.00,SSE,160,11.0,16.0,72,-99.99,,,-99.99,32.000000,,2013-02-05 16:01:00,
2013-02-05 08:11:00,25.0,16.0,-100.00,SSW,196,12.0,16.0,68,-99.99,,,-99.99,42.000000,,2013-02-05 16:11:00,
2013-02-05 08:22:00,27.0,15.0,-100.00,SSE,161,15.0,21.0,58,-99.99,,,-99.99,63.000000,,2013-02-05 16:22:00,
2013-02-05 08:32:00,28.0,15.0,-100.00,South,170,6.0,18.0,58,-99.99,,,-99.99,69.000000,,2013-02-05 16:32:00,
2013-02-05 08:42:00,28.0,16.0,-100.00,ESE,122,7.0,13.0,62,-99.99,,,-99.99,93.000000,,2013-02-05 16:42:00,
2013-02-05 08:51:00,27.0,16.0,-100.00,ESE,120,11.0,17.0,63,-99.99,,,-99.99,148.000000,,2013-02-05 16:51:00,
2013-02-05 09:01:00,30.0,17.0,-100.00,ESE,113,9.0,14.0,59,-99.99,,,-99.99,154.000000,,2013-02-05 17:01:00,
2013-02-05 09:11:00,32.0,17.0,-100.00,SE,130,11.0,15.0,54,-99.99,,,-99.99,139.000000,,2013-02-05 17:11:00,
2013-02-05 09:21:00,31.0,17.0,-100.00,SE,144,13.0,16.0,56,-99.99,,,-99.99,142.000000,,2013-02-05 17:21:00,
2013-02-05 09:32:00,31.0,17.0,-100.00,SE,144,13.0,16.0,56,-99.99,,,-99.99,142.000000,,2013-02-05 17:32:00,
2013-02-05 09:42:00,31.0,18.0,-100.00,SSE,158,9.0,14.0,58,-99.99,,,-99.99,163.000000,,2013-02-05 17:42:00,
2013-02-05 09:52:00,32.0,19.0,-100.00,East,98,4.0,7.0,58,-99.99,,,-99.99,208.000000,,2013-02-05 17:52:00,
2013-02-05 10:01:00,32.0,19.0,-100.00,East,98,4.0,7.0,58,-99.99,,,-99.99,208.000000,,2013-02-05 18:01:00,
2013-02-05 10:10:00,45.0,16.0,-100.00,SE,125,3.0,5.0,32,-99.99,,,-99.99,603.000000,,2013-02-05 18:10:00,
2013-02-05 10:11:00,36.0,19.0,-100.00,East,98,5.0,8.0,48,-99.99,,,-99.99,311.000000,,2013-02-05 18:11:00,
2013-02-05 10:21:00,39.0,18.0,-100.00,ESE,109,4.0,6.0,43,-99.99,,,-99.99,388.000000,,2013-02-05 18:21:00,
2013-02-05 10:32:00,39.0,18.0,-100.00,ESE,109,4.0,6.0,43,-99.99,,,-99.99,388.000000,,2013-02-05 18:32:00,
2013-02-05 10:42:00,43.0,17.0,-100.00,SE,124,2.0,4.0,34,-99.99,,,-99.99,521.000000,,2013-02-05 18:42:00,
2013-02-05 10:52:00,45.0,16.0,-100.00,SE,125,3.0,5.0,32,-99.99,,,-99.99,603.000000,,2013-02-05 18:52:00,
2013-02-05 11:02:00,45.0,16.0,-100.00,SE,125,3.0,5.0,32,-99.99,,,-99.99,603.000000,,2013-02-05 19:02:00,
2013-02-05 11:21:00,46.0,19.0,-100.00,ESE,119,2.0,4.0,33,-99.99,,,-99.99,471.000000,,2013-02-05 19:21:00,
2013-02-05 11:32:00,46.0,19.0,-100.00,ESE,119,2.0,4.0,33,-99.99,,,-99.99,471.000000,,2013-02-05 19:32:00,
2013-02-05 11:42:00,50.0,19.0,-100.00,NE,41,1.0,4.0,29,-99.99,,,-99.99,487.000000,,2013-02-05 19:42:00,
2013-02-05 11:52:00,48.0,18.0,-100.00,NE,55,2.0,4.0,30,-99.99,,,-99.99,517.000000,,2013-02-05 19:52:00,
2013-02-05 12:01:00,50.0,18.0,-100.00,East,85,1.0,4.0,28,-99.99,,,-99.99,409.000000,,2013-02-05 20:01:00,
2013-02-05 12:11:00,50.0,19.0,-100.00,NW,314,2.0,5.0,29,-99.99,,,-99.99,473.000000,,2013-02-05 20:11:00,
2013-02-05 12:21:00,48.0,23.0,-100.00,WNW,296,4.0,5.0,36,-99.99,,,-99.99,500.000000,,2013-02-05 20:21:00,
2013-02-05 12:32:00,48.0,23.0,-100.00,WNW,296,4.0,5.0,36,-99.99,,,-99.99,500.000000,,2013-02-05 20:32:00,
2013-02-05 12:41:00,48.0,20.0,-100.00,NW,307,3.0,4.0,33,-99.99,,,-99.99,300.000000,,2013-02-05 20:41:00,
2013-02-05 12:52:00,48.0,20.0,-100.00,WNW,296,2.0,3.0,32,-99.99,,,-99.99,381.000000,,2013-02-05 20:52:00,
2013-02-05 13:01:00,49.0,20.0,-100.00,WNW,294,2.0,3.0,31,-99.99,,,-99.99,401.000000,,2013-02-05 21:01:00,
2013-02-05 13:11:00,49.0,20.0,-100.00,WNW,301,3.0,4.0,32,-99.99,,,-99.99,388.000000,,2013-02-05 21:11:00,
2013-02-05 13:21:00,49.0,19.0,-100.00,NW,304,3.0,4.0,31,-99.99,,,-99.99,302.000000,,2013-02-05 21:21:00,
2013-02-05 13:32:00,49.0,19.0,-100.00,NW,304,3.0,4.0,31,-99.99,,,-99.99,302.000000,,2013-02-05 21:32:00,
2013-02-05 13:41:00,49.0,20.0,-100.00,WNW,290,2.0,3.0,31,-99.99,,,-99.99,375.000000,,2013-02-05 21:41:00,
2013-02-05 13:51:00,50.0,20.0,-100.00,NW,312,1.0,3.0,30,-99.99,,,-99.99,353.000000,,2013-02-05 21:51:00,
2013-02-05 14:01:00,50.0,20.0,-100.00,NW,312,1.0,3.0,30,-99.99,,,-99.99,353.000000,,2013-02-05 22:01:00,
2013-02-05 14:11:00,52.0,17.0,-100.00,ENE,69,2.0,4.0,25,-99.99,,,-99.99,362.000000,,2013-02-05 22:11:00,
2013-02-05 14:21:00,52.0,18.0,-100.00,ENE,70,1.0,3.0,26,-99.99,,,-99.99,342.000000,,2013-02-05 22:21:00,
2013-02-05 14:31:00,52.0,18.0,-100.00,ENE,70,1.0,3.0,26,-99.99,,,-99.99,342.000000,,2013-02-05 22:31:00,
2013-02-05 14:42:00,52.0,17.0,-100.00,North,354,2.0,3.0,25,-99.99,,,-99.99,265.000000,,2013-02-05 22:42:00,
2013-02-05 14:51:00,52.0,17.0,-100.00,North,354,2.0,3.0,25,-99.99,,,-99.99,265.000000,,2013-02-05 22:51:00,
2013-02-05 15:01:00,52.0,16.0,-100.00,NW,326,0.0,2.0,24,-99.99,,,-99.99,270.000000,,2013-02-05 23:01:00,
2013-02-05 15:11:00,52.0,18.0,-100.00,SE,130,3.0,9.0,25,-99.99,,,-99.99,335.000000,,2013-02-05 23:11:00,
2013-02-05 15:21:00,52.0,18.0,-100.00,SE,130,3.0,9.0,25,-99.99,,,-99.99,335.000000,,2013-02-05 23:21:00,
2013-02-05 15:32:00,50.0,21.0,-100.00,SE,128,7.0,10.0,32,-99.99,,,-99.99,272.000000,,2013-02-05 23:32:00,
2013-02-05 15:41:00,50.0,21.0,-100.00,SE,125,7.0,10.0,32,-99.99,,,-99.99,244.000000,,2013-02-05 23:41:00,
2013-02-05 15:52:00,49.0,21.0,-100.00,SE,141,6.0,9.0,32,-99.99,,,-99.99,171.000000,,2013-02-05 23:52:00,
2013-02-05 16:01:00,49.0,21.0,-100.00,SE,141,6.0,9.0,32,-99.99,,,-99.99,171.000000,,2013-02-06 00:01:00,
2013-02-05 16:11:00,47.0,25.0,-100.00,South,186,4.0,6.0,41,-99.99,,,-99.99,143.000000,,2013-02-06 00:11:00,
2013-02-05 16:21:00,47.0,25.0,-100.00,South,186,4.0,6.0,41,-99.99,,,-99.99,143.000000,,2013-02-06 00:21:00,
2013-02-05 16:32:00,48.0,19.0,-100.00,SE,130,7.0,11.0,32,-99.99,,,-99.99,101.000000,,2013-02-06 00:32:00,
2013-02-05 16:42:00,48.0,19.0,-100.00,SSE,167,6.0,8.0,31,-99.99,,,-99.99,109.000000,,2013-02-06 00:42:00,
2013-02-05 16:52:00,48.0,19.0,-100.00,SSE,167,6.0,8.0,31,-99.99,,,-99.99,109.000000,,2013-02-06 00:52:00,
2013-02-05 17:01:00,47.0,20.0,-100.00,SSE,164,5.0,8.0,34,-99.99,,,-99.99,82.000000,,2013-02-06 01:01:00,
2013-02-05 17:11:00,47.0,22.0,-100.00,SSW,195,4.0,7.0,37,-99.99,,,-99.99,83.000000,,2013-02-06 01:11:00,
2013-02-05 17:21:00,47.0,22.0,-100.00,SSW,195,4.0,7.0,37,-99.99,,,-99.99,83.000000,,2013-02-06 01:21:00,
2013-02-05 17:32:00,46.0,22.0,-100.00,SSW,205,3.0,5.0,39,-99.99,,,-99.99,44.000000,,2013-02-06 01:32:00,
2013-02-05 17:42:00,44.0,21.0,-100.00,SSE,159,4.0,7.0,39,-99.99,,,-99.99,7.000000,,2013-02-06 01:42:00,
2013-02-05 17:52:00,44.0,21.0,-100.00,SSE,159,4.0,7.0,39,-99.99,,,-99.99,7.000000,,2013-02-06 01:52:00,
2013-02-05 18:01:00,43.0,20.0,-100.00,SE,135,7.0,9.0,38,-99.99,,,-99.99,5.000000,,2013-02-06 02:01:00,
2013-02-05 18:11:00,42.0,21.0,-100.00,SE,141,8.0,10.0,42,-99.99,,,-99.99,2.000000,,2013-02-06 02:11:00,
2013-02-05 18:21:00,42.0,21.0,-100.00,SE,141,8.0,10.0,42,-99.99,,,-99.99,2.000000,,2013-02-06 02:21:00,
2013-02-05 18:32:00,43.0,20.0,-100.00,SSE,159,6.0,9.0,39,-99.99,,,-99.99,1.000000,,2013-02-06 02:32:00,
2013-02-05 18:42:00,41.0,22.0,-100.00,SE,136,7.0,10.0,47,-99.99,,,-99.99,0.000000,,2013-02-06 02:42:00,
2013-02-05 18:52:00,41.0,22.0,-100.00,SE,136,7.0,10.0,47,-99.99,,,-99.99,0.000000,,2013-02-06 02:52:00,
2013-02-05 19:02:00,38.0,25.0,-100.00,SSW,192,4.0,6.0,57,-99.99,,,-99.99,0.000000,,2013-02-06 03:02:00,
2013-02-05 19:12:00,38.0,24.0,-100.00,SSE,167,5.0,8.0,56,-99.99,,,-99.99,0.000000,,2013-02-06 03:12:00,
2013-02-05 19:21:00,38.0,24.0,-100.00,SSE,167,5.0,8.0,56,-99.99,,,-99.99,0.000000,,2013-02-06 03:21:00,
2013-02-05 19:32:00,38.0,25.0,-100.00,South,191,4.0,7.0,60,-99.99,,,-99.99,0.000000,,2013-02-06 03:32:00,
2013-02-05 19:42:00,39.0,23.0,-100.00,South,179,7.0,10.0,53,-99.99,,,-99.99,0.000000,,2013-02-06 03:42:00,
2013-02-05 19:52:00,39.0,23.0,-100.00,South,179,7.0,10.0,53,-99.99,,,-99.99,0.000000,,2013-02-06 03:52:00,
2013-02-05 20:01:00,41.0,22.0,-100.00,SSE,168,8.0,13.0,46,-99.99,,,-99.99,0.000000,,2013-02-06 04:01:00,
2013-02-05 20:11:00,42.0,21.0,-100.00,SSE,161,8.0,11.0,43,-99.99,,,-99.99,0.000000,,2013-02-06 04:11:00,
2013-02-05 20:21:00,42.0,21.0,-100.00,SSE,161,8.0,11.0,43,-99.99,,,-99.99,0.000000,,2013-02-06 04:21:00,
2013-02-05 20:31:00,40.0,22.0,-100.00,SSE,159,7.0,10.0,49,-99.99,,,-99.99,0.000000,,2013-02-06 04:31:00,
2013-02-05 20:42:00,40.0,22.0,-100.00,SSE,157,6.0,12.0,48,-99.99,,,-99.99,0.000000,,2013-02-06 04:42:00,
2013-02-05 20:51:00,41.0,20.0,-100.00,SSE,157,9.0,14.0,42,-99.99,,,-99.99,0.000000,,2013-02-06 04:51:00,
2013-02-05 21:01:00,39.0,23.0,-100.00,South,182,8.0,11.0,52,-99.99,,,-99.99,0.000000,,2013-02-06 05:01:00,
2013-02-05 21:12:00,39.0,22.0,-100.00,South,178,7.0,11.0,49,-99.99,,,-99.99,0.000000,,2013-02-06 05:12:00,
2013-02-05 21:22:00,39.0,23.0,-100.00,South,182,7.0,9.0,52,-99.99,,,-99.99,0.000000,,2013-02-06 05:22:00,
2013-02-05 21:31:00,39.0,23.0,-100.00,South,180,6.0,10.0,52,-99.99,,,-99.99,0.000000,,2013-02-06 05:31:00,
2013-02-05 21:41:00,37.0,24.0,-100.00,SSW,204,5.0,6.0,58,-99.99,,,-99.99,0.000000,,2013-02-06 05:41:00,
2013-02-05 21:52:00,37.0,24.0,-100.00,SSE,164,6.0,13.0,58,-99.99,,,-99.99,0.000000,,2013-02-06 05:52:00,
2013-02-05 22:01:00,38.0,24.0,-100.00,SSW,192,7.0,10.0,58,-99.99,,,-99.99,0.000000,,2013-02-06 06:01:00,
2013-02-05 22:11:00,38.0,23.0,-100.00,South,171,8.0,12.0,54,-99.99,,,-99.99,0.000000,,2013-02-06 06:11:00,
2013-02-05 22:21:00,39.0,23.0,-100.00,South,170,8.0,10.0,52,-99.99,,,-99.99,0.000000,,2013-02-06 06:21:00,
2013-02-05 22:31:00,38.0,23.0,-100.00,South,184,9.0,12.0,55,-99.99,,,-99.99,0.000000,,2013-02-06 06:31:00,
2013-02-05 22:42:00,38.0,23.0,-100.00,South,179,9.0,14.0,53,-99.99,,,-99.99,0.000000,,2013-02-06 06:42:00,
2013-02-05 22:50:00,38.0,22.0,-100.00,South,179,8.0,11.0,53,-99.99,,,-99.99,0.000000,,2013-02-06 06:50:00,
2013-02-05 22:51:00,38.0,22.0,-100.00,South,180,9.0,12.0,52,-99.99,,,-99.99,0.000000,,2013-02-06 06:51:00,
2013-02-05 23:01:00,38.0,22.0,-100.00,South,180,9.0,12.0,52,-99.99,,,-99.99,0.000000,,2013-02-06 07:01:00,
2013-02-05 23:11:00,38.0,22.0,-100.00,South,185,10.0,14.0,52,-99.99,,,-99.99,0.000000,,2013-02-06 07:11:00,
2013-02-05 23:21:00,38.0,22.0,-100.00,South,178,9.0,14.0,51,-99.99,,,-99.99,0.000000,,2013-02-06 07:21:00,
2013-02-05 23:32:00,38.0,22.0,-100.00,South,179,8.0,11.0,53,-99.99,,,-99.99,0.000000,,2013-02-06 07:32:00,
2013-02-05 23:41:00,38.0,22.0,-100.00,South,179,8.0,11.0,53,-99.99,,,-99.99,0.000000,,2013-02-06 07:41:00,